createdAt,value
2023-12-30T00:02:59.720Z,100.00
2023-12-30T00:06:03.085Z,100.00
2023-12-30T00:09:06.163Z,100.00
2023-12-30T00:12:10.589Z,100.00
2023-12-30T00:15:13.816Z,100.00
2023-12-30T00:18:17.388Z,100.00
2023-12-30T00:21:21.166Z,100.00
2023-12-30T00:24:24.754Z,100.00
2023-12-30T00:27:27.696Z,100.00
2023-12-30T00:30:31.150Z,100.00
2023-12-30T00:33:34.346Z,100.00
2023-12-30T00:36:45.108Z,100.00
2023-12-30T00:39:49.059Z,100.00
2023-12-30T00:42:52.414Z,100.00
2023-12-30T00:45:55.388Z,100.00
2023-12-30T00:48:58.935Z,100.00
2023-12-30T00:52:02.180Z,100.00
2023-12-30T00:55:06.099Z,100.00
2023-12-30T00:58:09.150Z,100.00
2023-12-30T01:01:12.617Z,100.00
2023-12-30T01:04:15.434Z,100.00
2023-12-30T01:07:18.722Z,100.00
2023-12-30T01:10:21.605Z,100.00
2023-12-30T01:13:25.473Z,100.00
2023-12-30T01:16:28.478Z,100.00
2023-12-30T01:19:31.863Z,100.00
2023-12-30T01:22:35.017Z,100.00
2023-12-30T01:25:40.031Z,100.00
2023-12-30T01:28:42.879Z,100.00
2023-12-30T01:31:46.163Z,100.00
2023-12-30T01:34:49.102Z,100.00
2023-12-30T01:37:52.334Z,100.00
2023-12-30T01:40:56.974Z,100.00
2023-12-30T01:44:00.458Z,100.00
2023-12-30T01:47:03.383Z,100.00
2023-12-30T01:50:08.109Z,100.00
2023-12-30T01:53:12.177Z,100.00
2023-12-30T01:56:16.290Z,100.00
2023-12-30T01:59:20.287Z,100.00
2023-12-30T02:02:24.307Z,100.00
2023-12-30T02:05:27.552Z,100.00
2023-12-30T02:08:30.582Z,100.00
2023-12-30T02:11:34.773Z,100.00
2023-12-30T02:14:37.603Z,100.00
2023-12-30T02:17:41.617Z,100.00
2023-12-30T02:20:44.872Z,100.00
2023-12-30T02:23:54.963Z,100.00
2023-12-30T02:26:58.560Z,100.00
2023-12-30T02:30:01.393Z,100.00
2023-12-30T02:33:05.394Z,100.00
2023-12-30T02:36:08.742Z,100.00
2023-12-30T02:39:12.547Z,100.00
2023-12-30T02:42:15.439Z,100.00
2023-12-30T02:45:18.960Z,100.00
2023-12-30T02:48:21.984Z,100.00
2023-12-30T02:51:25.716Z,100.00
2023-12-30T02:54:29.822Z,100.00
2023-12-30T02:57:33.452Z,100.00
2023-12-30T03:00:50.781Z,100.00
2023-12-30T03:03:55.789Z,100.00
2023-12-30T03:06:58.734Z,100.00
2023-12-30T03:10:02.256Z,100.00
2023-12-30T03:13:05.649Z,100.00
2023-12-30T03:16:09.397Z,100.00
2023-12-30T03:19:12.671Z,100.00
2023-12-30T03:22:16.116Z,100.00
2023-12-30T03:25:19.528Z,100.00
2023-12-30T03:28:22.922Z,100.00
2023-12-30T03:31:30.768Z,100.00
2023-12-30T03:34:34.199Z,100.00
2023-12-30T03:37:37.553Z,100.00
2023-12-30T03:40:40.903Z,100.00
2023-12-30T03:43:44.379Z,100.00
2023-12-30T03:46:48.106Z,100.00
2023-12-30T03:49:50.916Z,100.00
2023-12-30T03:52:54.799Z,100.00
2023-12-30T03:55:58.075Z,100.00
2023-12-30T03:59:01.371Z,100.00
2023-12-30T04:02:04.525Z,100.00
2023-12-30T04:05:08.312Z,100.00
2023-12-30T04:08:11.407Z,100.00
2023-12-30T04:11:15.342Z,100.00
2023-12-30T04:14:19.029Z,100.00
2023-12-30T04:17:22.343Z,100.00
2023-12-30T04:20:25.297Z,100.00
2023-12-30T04:23:29.218Z,100.00
2023-12-30T04:26:32.646Z,100.00
2023-12-30T04:29:35.904Z,100.00
2023-12-30T04:32:38.946Z,100.00
2023-12-30T04:35:43.102Z,100.00
2023-12-30T04:38:47.885Z,100.00
2023-12-30T04:41:51.322Z,100.00
2023-12-30T04:44:55.538Z,100.00
2023-12-30T04:47:58.675Z,100.00
2023-12-30T04:51:01.538Z,100.00
2023-12-30T04:54:05.269Z,100.00
2023-12-30T04:57:08.707Z,100.00
2023-12-30T05:00:12.502Z,100.00
2023-12-30T05:03:16.982Z,100.00
2023-12-30T05:06:24.727Z,100.00
2023-12-30T05:09:27.583Z,100.00
2023-12-30T05:12:30.814Z,100.00
2023-12-30T05:15:33.969Z,100.00
2023-12-30T05:18:37.871Z,100.00
2023-12-30T05:21:42.783Z,100.00
2023-12-30T05:24:46.429Z,100.00
2023-12-30T05:27:49.521Z,100.00
2023-12-30T05:30:52.769Z,100.00
2023-12-30T05:33:56.180Z,100.00
2023-12-30T05:36:59.615Z,100.00
2023-12-30T05:40:03.085Z,100.00
2023-12-30T05:43:07.581Z,100.00
2023-12-30T05:46:17.540Z,100.00
2023-12-30T05:49:20.919Z,100.00
2023-12-30T05:52:24.042Z,100.00
2023-12-30T05:55:27.690Z,100.00
2023-12-30T05:58:30.651Z,100.00
2023-12-30T06:01:34.015Z,100.00
2023-12-30T06:04:41.732Z,100.00
2023-12-30T06:07:44.843Z,100.00
2023-12-30T06:10:53.012Z,100.00
2023-12-30T06:13:56.422Z,100.00
2023-12-30T06:16:59.631Z,100.00
2023-12-30T06:20:02.771Z,100.00
2023-12-30T06:23:06.139Z,100.00
2023-12-30T06:26:09.212Z,100.00
2023-12-30T06:29:12.878Z,100.00
2023-12-30T06:32:15.809Z,100.00
2023-12-30T06:35:19.307Z,100.00
2023-12-30T06:38:22.530Z,100.00
2023-12-30T06:41:25.746Z,100.00
2023-12-30T06:44:28.864Z,100.00
2023-12-30T06:47:32.098Z,100.00
2023-12-30T06:50:35.043Z,100.00
2023-12-30T06:53:39.130Z,100.00
2023-12-30T06:56:42.358Z,100.00
2023-12-30T06:59:45.385Z,100.00
2023-12-30T07:02:49.102Z,100.00
2023-12-30T07:05:52.406Z,100.00
2023-12-30T07:08:55.274Z,100.00
2023-12-30T07:11:58.522Z,100.00
2023-12-30T07:15:01.627Z,100.00
2023-12-30T07:18:05.360Z,100.00
2023-12-30T07:21:08.360Z,100.00
2023-12-30T07:24:11.888Z,100.00
2023-12-30T07:27:16.088Z,100.00
2023-12-30T07:30:19.595Z,100.00
2023-12-30T07:33:23.706Z,100.00
2023-12-30T07:36:28.482Z,100.00
2023-12-30T07:39:34.297Z,100.00
2023-12-30T07:42:37.821Z,100.00
2023-12-30T07:45:41.057Z,100.00
2023-12-30T07:48:45.649Z,100.00
2023-12-30T07:51:48.823Z,100.00
2023-12-30T07:54:51.916Z,100.00
2023-12-30T07:57:54.916Z,100.00
2023-12-30T08:00:58.243Z,100.00
2023-12-30T08:04:02.203Z,100.00
2023-12-30T08:07:05.348Z,100.00
2023-12-30T08:10:08.967Z,100.00
2023-12-30T08:13:30.874Z,100.00
2023-12-30T08:16:38.145Z,100.00
2023-12-30T08:19:41.467Z,100.00
2023-12-30T08:22:45.523Z,100.00
2023-12-30T08:25:48.625Z,100.00
2023-12-30T08:28:53.153Z,100.00
2023-12-30T08:31:56.151Z,100.00
2023-12-30T08:34:59.816Z,100.00
2023-12-30T08:38:02.966Z,100.00
2023-12-30T08:41:11.372Z,100.00
2023-12-30T08:44:14.297Z,100.00
2023-12-30T08:47:18.166Z,100.00
2023-12-30T08:50:21.039Z,100.00
2023-12-30T08:53:26.522Z,100.00
2023-12-30T08:56:35.136Z,100.00
2023-12-30T08:59:39.793Z,100.00
2023-12-30T09:02:48.588Z,100.00
2023-12-30T09:05:51.919Z,100.00
2023-12-30T09:08:54.878Z,94.59
2023-12-30T09:11:58.150Z,100.00
2023-12-30T09:15:00.879Z,100.00
2023-12-30T09:18:04.663Z,100.00
2023-12-30T09:21:07.566Z,98.74
2023-12-30T09:24:11.100Z,94.42
2023-12-30T09:27:13.921Z,90.71
2023-12-30T09:30:17.308Z,84.70
2023-12-30T09:33:20.717Z,81.07
2023-12-30T09:36:24.329Z,75.09
2023-12-30T09:39:28.180Z,70.32
2023-12-30T09:42:31.379Z,70.57
2023-12-30T09:45:35.944Z,73.32
2023-12-30T09:48:41.119Z,68.28
2023-12-30T09:51:44.300Z,65.71
2023-12-30T09:54:49.514Z,64.91
2023-12-30T09:57:52.759Z,67.08
2023-12-30T10:00:56.004Z,65.57
2023-12-30T10:03:59.667Z,66.45
2023-12-30T10:07:04.429Z,70.35
2023-12-30T10:10:09.515Z,66.45
2023-12-30T10:13:14.237Z,65.02
2023-12-30T10:16:18.593Z,64.15
2023-12-30T10:19:21.616Z,65.21
2023-12-30T10:22:25.141Z,65.76
2023-12-30T10:25:28.003Z,65.78
2023-12-30T10:28:31.909Z,66.77
2023-12-30T10:31:35.143Z,66.59
2023-12-30T10:34:42.485Z,66.55
2023-12-30T10:37:48.774Z,68.44
2023-12-30T10:40:55.209Z,67.45
2023-12-30T10:43:58.664Z,67.58
2023-12-30T10:47:04.271Z,68.02
2023-12-30T10:50:11.262Z,67.84
2023-12-30T10:53:24.664Z,68.81
2023-12-30T10:56:31.558Z,67.71
2023-12-30T10:59:38.746Z,67.71
2023-12-30T11:02:42.593Z,65.93
2023-12-30T11:05:58.342Z,65.21
2023-12-30T11:09:08.298Z,66.21
2023-12-30T11:12:11.727Z,63.96
2023-12-30T11:15:31.977Z,61.81
2023-12-30T11:18:51.216Z,60.03
2023-12-30T11:22:02.830Z,57.55
2023-12-30T11:25:06.528Z,57.51
2023-12-30T11:28:19.610Z,58.77
2023-12-30T11:31:35.308Z,60.32
2023-12-30T11:34:38.273Z,60.17
2023-12-30T11:37:45.600Z,60.65
2023-12-30T11:40:55.886Z,61.86
2023-12-30T11:44:01.623Z,61.33
2023-12-30T11:47:04.939Z,59.60
2023-12-30T11:50:11.400Z,57.71
2023-12-30T11:53:17.128Z,53.44
2023-12-30T11:56:22.959Z,52.62
2023-12-30T11:59:26.501Z,51.46
2023-12-30T12:02:29.862Z,49.83
2023-12-30T12:05:34.985Z,47.95
2023-12-30T12:08:39.648Z,48.51
2023-12-30T12:11:44.096Z,49.64
2023-12-30T12:14:54.213Z,47.97
2023-12-30T12:17:58.074Z,46.29
2023-12-30T12:21:04.658Z,46.23
2023-12-30T12:24:07.881Z,46.87
2023-12-30T12:27:11.360Z,45.88
2023-12-30T12:30:14.719Z,46.28
2023-12-30T12:33:22.504Z,45.24
2023-12-30T12:36:27.019Z,45.33
2023-12-30T12:39:31.631Z,45.96
2023-12-30T12:42:35.191Z,45.13
2023-12-30T12:45:38.239Z,45.14
2023-12-30T12:48:41.590Z,46.00
2023-12-30T12:51:45.694Z,46.72
2023-12-30T12:54:49.113Z,47.62
2023-12-30T12:57:52.261Z,50.29
2023-12-30T13:00:55.596Z,51.97
2023-12-30T13:03:59.885Z,55.34
2023-12-30T13:07:03.472Z,60.44
2023-12-30T13:10:34.087Z,62.38
2023-12-30T13:13:37.799Z,60.81
2023-12-30T13:16:43.153Z,62.66
2023-12-30T13:19:47.521Z,64.55
2023-12-30T13:22:56.841Z,63.46
2023-12-30T13:26:03.290Z,61.96
2023-12-30T13:29:07.775Z,61.54
2023-12-30T13:32:12.498Z,61.78
2023-12-30T13:35:15.394Z,62.44
2023-12-30T13:38:24.634Z,61.10
2023-12-30T13:41:27.513Z,60.99
2023-12-30T13:44:36.910Z,61.88
2023-12-30T13:47:45.671Z,63.32
2023-12-30T13:50:56.081Z,63.78
2023-12-30T13:54:01.060Z,64.63
2023-12-30T13:57:14.296Z,65.90
2023-12-30T14:00:19.551Z,67.73
2023-12-30T14:03:24.566Z,68.28
2023-12-30T14:06:36.327Z,68.24
2023-12-30T14:09:51.560Z,69.39
2023-12-30T14:13:02.043Z,69.84
2023-12-30T14:16:07.351Z,71.39
2023-12-30T14:19:10.763Z,71.45
2023-12-30T14:22:17.593Z,73.08
2023-12-30T14:25:20.430Z,73.25
2023-12-30T14:28:23.932Z,74.89
2023-12-30T14:31:26.961Z,75.57
2023-12-30T14:34:30.808Z,74.91
2023-12-30T14:37:33.983Z,75.40
2023-12-30T14:40:37.593Z,77.52
2023-12-30T14:43:40.529Z,77.00
2023-12-30T14:46:44.065Z,77.88
2023-12-30T14:49:47.034Z,78.24
2023-12-30T14:52:50.284Z,77.84
2023-12-30T14:55:53.139Z,78.43
2023-12-30T14:58:56.569Z,77.67
2023-12-30T15:01:59.675Z,78.60
2023-12-30T15:05:03.193Z,79.53
2023-12-30T15:08:06.462Z,79.69
2023-12-30T15:11:10.432Z,80.76
2023-12-30T15:14:13.396Z,80.90
2023-12-30T15:17:16.751Z,83.92
2023-12-30T15:20:20.738Z,84.24
2023-12-30T15:23:24.337Z,85.43
2023-12-30T15:26:27.378Z,86.00
2023-12-30T15:29:30.457Z,87.24
2023-12-30T15:32:33.795Z,88.32
2023-12-30T15:35:37.452Z,89.09
2023-12-30T15:38:40.587Z,89.22
2023-12-30T15:41:45.900Z,93.22
2023-12-30T15:44:49.566Z,94.47
2023-12-30T15:47:53.021Z,95.60
2023-12-30T15:50:56.111Z,94.43
2023-12-30T15:53:59.957Z,93.58
2023-12-30T15:57:03.201Z,95.04
2023-12-30T16:00:09.915Z,93.36
2023-12-30T16:03:15.272Z,93.26
2023-12-30T16:06:19.293Z,91.96
2023-12-30T16:09:22.930Z,92.52
2023-12-30T16:12:26.235Z,93.03
2023-12-30T16:15:31.126Z,95.82
2023-12-30T16:18:34.207Z,96.15
2023-12-30T16:21:38.329Z,98.64
2023-12-30T16:24:43.120Z,99.20
2023-12-30T16:27:49.141Z,98.11
2023-12-30T16:30:56.423Z,96.33
2023-12-30T16:34:01.387Z,97.69
2023-12-30T16:37:06.749Z,95.83
2023-12-30T16:40:12.407Z,98.51
2023-12-30T16:43:16.294Z,96.93
2023-12-30T16:46:20.393Z,100.00
2023-12-30T16:49:23.366Z,98.24
2023-12-30T16:52:27.125Z,98.57
2023-12-30T16:55:30.376Z,99.45
2023-12-30T16:58:34.575Z,98.17
2023-12-30T17:01:37.982Z,97.04
2023-12-30T17:04:41.879Z,96.67
2023-12-30T17:07:45.484Z,97.35
2023-12-30T17:10:49.635Z,97.59
2023-12-30T17:13:54.246Z,98.26
2023-12-30T17:16:57.926Z,98.70
2023-12-30T17:20:00.769Z,99.49
2023-12-30T17:23:06.989Z,98.76
2023-12-30T17:26:10.318Z,99.18
2023-12-30T17:29:13.936Z,98.55
2023-12-30T17:32:18.751Z,98.01
2023-12-30T17:35:26.331Z,97.15
2023-12-30T17:38:29.070Z,97.13
2023-12-30T17:41:32.630Z,98.29
2023-12-30T17:44:36.456Z,99.36
2023-12-30T17:47:40.595Z,99.94
2023-12-30T17:50:46.714Z,99.84
2023-12-30T17:53:51.669Z,98.79
2023-12-30T17:56:55.177Z,98.32
2023-12-30T17:59:58.981Z,97.70
2023-12-30T18:03:02.718Z,96.99
2023-12-30T18:06:07.941Z,97.83
2023-12-30T18:09:12.778Z,98.41
2023-12-30T18:12:16.644Z,98.00
2023-12-30T18:15:20.343Z,97.18
2023-12-30T18:18:24.326Z,98.33
2023-12-30T18:21:29.056Z,100.00
2023-12-30T18:24:33.341Z,100.00
2023-12-30T18:27:36.760Z,100.00
2023-12-30T18:30:43.062Z,99.71
2023-12-30T18:33:47.363Z,100.00
2023-12-30T18:36:53.636Z,99.82
2023-12-30T18:39:57.092Z,98.56
2023-12-30T18:43:00.968Z,98.35
2023-12-30T18:46:04.429Z,99.36
2023-12-30T18:49:08.951Z,100.00
2023-12-30T18:52:16.317Z,100.00
2023-12-30T18:55:20.684Z,100.00
2023-12-30T18:58:25.096Z,100.00
2023-12-30T19:01:29.179Z,100.00
2023-12-30T19:04:36.020Z,100.00
2023-12-30T19:07:41.998Z,100.00
2023-12-30T19:10:45.953Z,99.76
2023-12-30T19:13:50.106Z,100.00
2023-12-30T19:16:53.432Z,100.00
2023-12-30T19:20:01.275Z,99.96
2023-12-30T19:23:05.233Z,99.69
2023-12-30T19:26:09.981Z,100.00
2023-12-30T19:29:13.513Z,100.00
2023-12-30T19:32:17.418Z,99.94
2023-12-30T19:35:20.664Z,100.00
2023-12-30T19:38:24.676Z,100.00
2023-12-30T19:41:27.517Z,100.00
2023-12-30T19:44:32.349Z,99.93
2023-12-30T19:47:35.811Z,99.87
2023-12-30T19:50:39.752Z,100.00
2023-12-30T19:53:43.788Z,100.00
2023-12-30T19:56:47.743Z,100.00
2023-12-30T19:59:50.915Z,100.00
2023-12-30T20:02:54.798Z,100.00
2023-12-30T20:05:58.957Z,100.00
2023-12-30T20:09:03.046Z,100.00
2023-12-30T20:12:07.298Z,100.00
2023-12-30T20:15:10.614Z,100.00
2023-12-30T20:18:15.460Z,100.00
2023-12-30T20:21:19.235Z,100.00
2023-12-30T20:24:23.986Z,100.00
2023-12-30T20:27:30.143Z,100.00
2023-12-30T20:30:35.409Z,100.00
2023-12-30T20:33:39.366Z,100.00
2023-12-30T20:36:45.299Z,100.00
2023-12-30T20:39:50.213Z,100.00
2023-12-30T20:42:55.744Z,100.00
2023-12-30T20:46:01.400Z,100.00
2023-12-30T20:49:07.862Z,100.00
2023-12-30T20:52:12.716Z,100.00
2023-12-30T20:55:18.425Z,100.00
2023-12-30T20:58:22.448Z,100.00
2023-12-30T21:01:28.990Z,100.00
2023-12-30T21:04:38.792Z,100.00
2023-12-30T21:07:41.783Z,100.00
2023-12-30T21:10:44.695Z,100.00
2023-12-30T21:13:48.064Z,100.00
2023-12-30T21:16:51.668Z,100.00
2023-12-30T21:19:55.361Z,100.00
2023-12-30T21:22:58.328Z,100.00
2023-12-30T21:26:02.292Z,100.00
2023-12-30T21:29:07.298Z,100.00
2023-12-30T21:32:11.083Z,100.00
2023-12-30T21:35:14.359Z,100.00
2023-12-30T21:38:17.750Z,100.00
2023-12-30T21:41:24.641Z,100.00
2023-12-30T21:44:27.951Z,100.00
2023-12-30T21:47:32.167Z,100.00
2023-12-30T21:50:35.546Z,100.00
2023-12-30T21:53:38.478Z,100.00
2023-12-30T21:56:42.991Z,100.00
2023-12-30T21:59:46.060Z,100.00
2023-12-30T22:02:49.333Z,100.00
2023-12-30T22:05:52.632Z,100.00
2023-12-30T22:08:55.552Z,100.00
2023-12-30T22:11:58.729Z,100.00
2023-12-30T22:15:01.407Z,100.00
2023-12-30T22:18:08.187Z,100.00
2023-12-30T22:21:11.191Z,100.00
2023-12-30T22:24:14.490Z,100.00
2023-12-30T22:27:17.438Z,100.00
2023-12-30T22:30:21.161Z,100.00
2023-12-30T22:33:24.229Z,100.00
2023-12-30T22:36:29.434Z,100.00
2023-12-30T22:39:32.611Z,100.00
2023-12-30T22:42:36.614Z,100.00
2023-12-30T22:45:42.220Z,100.00
2023-12-30T22:48:45.558Z,100.00
2023-12-30T22:51:50.018Z,100.00
2023-12-30T22:54:53.390Z,100.00
2023-12-30T22:57:56.173Z,100.00
2023-12-30T23:00:59.612Z,100.00
2023-12-30T23:04:03.166Z,100.00
2023-12-30T23:07:06.421Z,99.89
2023-12-30T23:10:12.787Z,99.68
2023-12-30T23:13:20.297Z,99.72
2023-12-30T23:16:23.405Z,99.44
2023-12-30T23:19:26.752Z,100.00
2023-12-30T23:22:29.648Z,100.00
2023-12-30T23:25:33.917Z,100.00
2023-12-30T23:28:36.889Z,100.00
2023-12-30T23:31:42.721Z,100.00
2023-12-30T23:34:49.663Z,100.00
2023-12-30T23:37:54.176Z,100.00
2023-12-30T23:40:56.957Z,100.00
2023-12-30T23:44:00.575Z,100.00
2023-12-30T23:47:03.250Z,100.00
2023-12-30T23:50:07.011Z,100.00
2023-12-30T23:53:09.889Z,100.00
2023-12-30T23:56:13.167Z,100.00
2023-12-30T23:59:18.440Z,100.00
